Time;durP1;ratioP1;P1;durP2;ratioP2;P2;SDS_P1;SDS_P2;PMS_P1;PMS_P2;Temp;Humidity;BMP_temperature;BMP_pressure;BME280_temperature;BME280_humidity;BME280_pressure;Samples;Min_cycle;Max_cycle;Signal;HPM_P1;HPM_P2
2024/03/30 00:03:00;;;;;;;6.63;5.60;;;;;;;9.41;100.00;99922.38;10077016;28;20599;-71
2024/03/30 00:07:55;;;;;;;6.50;5.18;;;;;;;9.42;100.00;99920.44;10096093;28;20043;-71
2024/03/30 00:12:54;;;;;;;6.25;5.05;;;;;;;9.42;100.00;99923.16;10099626;28;20047;-72
2024/03/30 00:17:49;;;;;;;6.15;5.10;;;;;;;9.42;100.00;99921.25;10092004;28;20067;-72
2024/03/30 00:22:45;;;;;;;8.40;4.97;;;;;;;9.40;100.00;99918.06;10081191;28;20137;-72
2024/03/30 00:27:40;;;;;;;6.32;4.50;;;;;;;9.42;100.00;99910.34;10091973;28;20472;-71
2024/03/30 00:32:36;;;;;;;6.80;4.85;;;;;;;9.40;100.00;99915.34;10094696;28;20511;-71
2024/03/30 00:37:32;;;;;;;5.65;4.70;;;;;;;9.36;100.00;99887.09;10090810;28;20623;-71
2024/03/30 00:42:27;;;;;;;5.80;4.68;;;;;;;9.29;100.00;99895.00;10077300;28;20123;-70
2024/03/30 00:47:23;;;;;;;6.65;4.70;;;;;;;9.24;100.00;99898.72;10076456;28;20142;-70
2024/03/30 00:52:18;;;;;;;5.22;4.70;;;;;;;9.15;100.00;99916.25;10078860;28;20039;-72
2024/03/30 00:57:14;;;;;;;6.13;4.60;;;;;;;9.13;100.00;99905.66;10083492;28;20122;-70
2024/03/30 01:02:10;;;;;;;5.35;4.78;;;;;;;9.15;100.00;99910.81;10074113;28;20047;-70
2024/03/30 01:07:05;;;;;;;5.57;4.45;;;;;;;9.17;100.00;99911.28;10084052;28;20087;-70
2024/03/30 01:12:01;;;;;;;6.50;5.07;;;;;;;9.17;100.00;99908.56;10083351;28;20516;-70
2024/03/30 01:16:57;;;;;;;5.97;4.70;;;;;;;9.22;100.00;99913.81;10073782;28;20050;-71
2024/03/30 01:21:53;;;;;;;4.97;4.47;;;;;;;9.12;100.00;99916.91;10102092;28;20039;-71
2024/03/30 01:26:55;;;;;;;5.07;4.57;;;;;;;9.15;100.00;99911.59;10082105;28;20044;-70
2024/03/30 01:31:52;;;;;;;;;;;;;;;9.13;100.00;99915.78;10081914;28;20050;-71
2024/03/30 01:36:47;;;;;;;5.80;5.20;;;;;;;9.18;100.00;99921.06;10089915;28;19974;-71
2024/03/30 01:41:43;;;;;;;6.30;5.22;;;;;;;9.22;100.00;99922.00;10095460;28;20100;-71
2024/03/30 01:46:39;;;;;;;6.65;5.00;;;;;;;9.25;100.00;99915.88;10088476;28;20050;-72
2024/03/30 01:51:35;;;;;;;6.45;4.45;;;;;;;9.31;100.00;99914.56;10090704;28;20047;-71
2024/03/30 01:56:32;;;;;;;6.22;4.55;;;;;;;9.34;100.00;99927.53;10089265;28;20395;-72
2024/03/30 02:01:28;;;;;;;5.13;4.63;;;;;;;9.38;100.00;99931.22;10073572;28;20074;-70
2024/03/30 02:06:26;;;;;;;5.10;4.60;;;;;;;9.37;100.00;99928.81;10077587;28;20323;-70
2024/03/30 02:11:21;;;;;;;5.85;4.82;;;;;;;9.33;100.00;99912.31;10092738;28;20051;-71
2024/03/30 02:16:19;;;;;;;5.93;4.30;;;;;;;9.32;100.00;99915.38;10088452;28;20102;-71
2024/03/30 02:21:15;;;;;;;5.45;4.65;;;;;;;9.32;100.00;99932.53;10074099;28;20084;-71
2024/03/30 02:26:10;;;;;;;5.18;4.38;;;;;;;9.29;100.00;99933.19;10074108;28;20069;-71
2024/03/30 02:31:06;;;;;;;6.32;4.57;;;;;;;9.38;100.00;99936.69;10072487;28;20131;-71
2024/03/30 02:36:02;;;;;;;7.75;4.45;;;;;;;9.26;100.00;99918.28;10092076;28;20043;-70
2024/03/30 02:40:58;;;;;;;5.07;4.00;;;;;;;9.26;100.00;99922.94;10089611;28;20051;-70
2024/03/30 02:45:54;;;;;;;5.30;4.00;;;;;;;9.26;100.00;99922.94;10067465;28;20070;-71
2024/03/30 02:50:49;;;;;;;5.93;4.25;;;;;;;9.34;100.00;99930.28;10065890;28;20047;-71
2024/03/30 02:55:45;;;;;;;5.22;4.20;;;;;;;9.24;100.00;99925.19;10085426;28;20146;-70
2024/03/30 03:00:40;;;;;;;4.68;4.28;;;;;;;9.26;100.00;99909.31;10075849;28;20082;-71
2024/03/30 03:05:36;;;;;;;4.20;3.80;;;;;;;9.30;100.00;99907.50;10074884;28;20388;-71
2024/03/30 03:10:31;;;;;;;5.93;4.38;;;;;;;9.33;100.00;99916.97;10112984;28;20043;-71
2024/03/30 03:15:27;;;;;;;5.18;3.88;;;;;;;9.33;100.00;99912.31;10088947;28;20049;-71
2024/03/30 03:20:22;;;;;;;5.60;3.95;;;;;;;9.35;100.00;99906.53;10071401;28;20047;-71
2024/03/30 03:25:18;;;;;;;4.00;3.60;;;;;;;9.39;100.00;99905.53;10085038;28;20134;-71
2024/03/30 03:30:13;;;;;;;4.30;3.90;;;;;;;9.42;100.00;99904.88;10059423;28;20136;-70
2024/03/30 03:35:09;;;;;;;5.05;4.03;;;;;;;9.40;100.00;99906.31;10074469;28;20051;-71
2024/03/30 03:40:05;;;;;;;4.28;3.88;;;;;;;9.42;100.00;99902.16;10088816;28;20062;-71
2024/03/30 03:45:01;;;;;;;5.07;4.45;;;;;;;9.45;100.00;99909.69;10073892;28;20094;-71
2024/03/30 03:49:56;;;;;;;4.10;3.70;;;;;;;9.35;100.00;99882.78;10075414;28;20134;-70
2024/03/30 03:54:52;;;;;;;4.80;4.25;;;;;;;9.22;100.00;99889.28;10071438;28;20122;-70
2024/03/30 03:59:50;;;;;;;5.13;4.25;;;;;;;9.13;100.00;99874.88;10082709;28;20127;-71
2024/03/30 04:04:45;;;;;;;4.65;4.03;;;;;;;9.08;100.00;99872.34;10083637;28;20083;-71
2024/03/30 04:09:41;;;;;;;5.10;3.80;;;;;;;9.12;100.00;99873.25;10101155;28;20047;-70
2024/03/30 04:14:36;;;;;;;4.70;4.10;;;;;;;9.17;100.00;99864.91;10105194;28;20047;-71
2024/03/30 04:19:32;;;;;;;3.60;3.30;;;;;;;9.14;100.00;99865.56;10044288;28;20039;-71
2024/03/30 04:24:28;;;;;;;7.15;3.65;;;;;;;9.17;100.00;99864.91;10029168;28;20057;-71
2024/03/30 04:29:23;;;;;;;5.28;3.50;;;;;;;9.24;100.00;99854.28;10089134;28;20050;-71
2024/03/30 04:34:19;;;;;;;5.68;3.83;;;;;;;9.19;100.00;99851.72;10092329;28;20043;-71
2024/03/30 04:39:14;;;;;;;4.22;3.55;;;;;;;9.18;100.00;99841.94;10077825;28;20043;-70
2024/03/30 04:44:10;;;;;;;3.72;3.33;;;;;;;9.19;100.00;99846.28;10071017;28;20130;-70
2024/03/30 04:49:05;;;;;;;4.20;3.53;;;;;;;9.16;100.00;99841.47;10076069;28;20155;-71
2024/03/30 04:54:01;;;;;;;3.97;3.55;;;;;;;9.08;100.00;99834.16;10077703;28;20522;-71
2024/03/30 04:58:56;;;;;;;4.35;3.58;;;;;;;9.04;100.00;99842.19;10093722;28;20522;-71
2024/03/30 05:03:52;;;;;;;6.15;3.83;;;;;;;9.01;100.00;99835.47;10073653;28;20059;-71
2024/03/30 05:08:47;;;;;;;3.75;3.33;;;;;;;8.99;100.00;99826.81;10091589;28;20130;-71
2024/03/30 05:13:43;;;;;;;5.63;3.78;;;;;;;8.90;100.00;99834.22;10074700;28;20126;-71
2024/03/30 05:18:38;;;;;;;5.18;4.15;;;;;;;8.74;100.00;99819.56;10091893;28;20050;-71
2024/03/30 05:23:35;;;;;;;6.13;4.20;;;;;;;8.70;100.00;99813.16;10080097;28;20041;-70
2024/03/30 05:28:35;;;;;;;4.68;3.88;;;;;;;8.60;100.00;99820.56;10073554;28;20419;-72
2024/03/30 05:33:31;;;;;;;4.82;3.88;;;;;;;8.77;100.00;99821.63;10077193;28;20066;-71
2024/03/30 05:38:26;;;;;;;6.65;3.70;;;;;;;8.85;100.00;99809.88;10084121;28;20057;-72
2024/03/30 05:43:22;;;;;;;5.78;3.83;;;;;;;9.00;100.00;99817.50;10081174;28;20050;-72
2024/03/30 05:48:18;;;;;;;4.82;3.83;;;;;;;9.03;100.00;99811.41;10091331;28;20512;-70
2024/03/30 05:53:14;;;;;;;4.45;3.60;;;;;;;9.14;100.00;99808.28;10094260;28;20115;-71
2024/03/30 05:58:09;;;;;;;6.22;4.10;;;;;;;9.14;100.00;99816.47;10068856;28;20059;-71
2024/03/30 06:03:06;;;;;;;6.93;4.80;;;;;;;9.15;100.00;99807.16;10074642;28;20054;-71
2024/03/30 06:08:02;;;;;;;5.25;4.15;;;;;;;9.14;100.00;99809.06;10072701;28;20047;-71
2024/03/30 06:12:59;;;;;;;4.60;3.60;;;;;;;9.13;100.00;99803.97;10087179;28;20048;-71
2024/03/30 06:17:54;;;;;;;5.57;4.00;;;;;;;9.21;100.00;99806.66;10077781;28;20190;-71
2024/03/30 06:22:50;;;;;;;7.93;4.47;;;;;;;9.29;100.00;99807.72;10075377;28;20462;-71
2024/03/30 06:27:46;;;;;;;8.23;4.43;;;;;;;9.42;100.00;99812.13;10094429;28;20128;-72
2024/03/30 06:32:42;;;;;;;6.18;4.20;;;;;;;9.52;100.00;99827.31;10077123;28;20446;-70
2024/03/30 06:37:37;;;;;;;7.20;4.53;;;;;;;9.50;100.00;99823.31;10107170;28;20404;-72
2024/03/30 06:47:47;;;;;;;6.28;4.13;;;;;;;9.79;100.00;99825.16;10099841;28;20059;-71
2024/03/30 06:52:42;;;;;;;4.63;4.20;;;;;;;9.91;100.00;99833.41;10075571;28;20069;-72
2024/03/30 06:57:38;;;;;;;7.18;4.38;;;;;;;9.96;100.00;99824.22;10069699;28;20051;-71
2024/03/30 07:02:33;;;;;;;5.68;4.28;;;;;;;10.05;100.00;99833.13;10077618;28;20122;-71
2024/03/30 07:07:29;;;;;;;5.30;4.55;;;;;;;10.00;100.00;99830.59;10095521;28;20050;-72
2024/03/30 07:12:24;;;;;;;5.43;4.50;;;;;;;10.06;100.00;99829.25;10068837;28;20054;-70
2024/03/30 07:17:20;;;;;;;5.97;4.28;;;;;;;10.14;100.00;99830.28;10069910;28;20122;-71
2024/03/30 07:22:16;;;;;;;5.35;4.60;;;;;;;10.21;100.00;99825.91;10071840;28;20061;-70
2024/03/30 07:27:12;;;;;;;5.82;5.07;;;;;;;10.28;100.00;99831.66;10086679;28;20043;-72
2024/03/30 07:32:07;;;;;;;5.85;4.97;;;;;;;10.25;100.00;99826.81;10085866;28;20065;-70
2024/03/30 07:37:03;;;;;;;6.53;4.60;;;;;;;10.48;100.00;99827.22;10085152;28;20109;-70
2024/03/30 07:41:58;;;;;;;4.90;4.47;;;;;;;10.50;100.00;99830.44;10077216;28;20130;-71
2024/03/30 07:46:54;;;;;;;5.25;4.63;;;;;;;10.72;100.00;99829.22;10091978;28;20481;-72
2024/03/30 07:51:49;;;;;;;7.05;5.18;;;;;;;10.82;100.00;99821.72;10079816;28;20507;-71
2024/03/30 07:56:55;;;;;;;5.43;4.60;;;;;;;11.00;100.00;99811.31;10068832;28;20504;-71
2024/03/30 08:01:52;;;;;;;4.75;4.32;;;;;;;11.24;100.00;99805.06;10072900;28;20423;-72
2024/03/30 08:06:49;;;;;;;6.13;4.45;;;;;;;11.39;100.00;99804.31;10051620;28;20046;-71
2024/03/30 08:11:44;;;;;;;5.25;4.80;;;;;;;11.56;100.00;99803.28;10097523;28;20126;-71
2024/03/30 08:16:40;;;;;;;5.50;4.80;;;;;;;11.77;100.00;99783.91;10082693;28;20415;-70
2024/03/30 08:21:36;;;;;;;4.72;4.32;;;;;;;11.96;100.00;99797.78;10084324;28;20468;-71
2024/03/30 08:26:32;;;;;;;5.95;5.45;;;;;;;12.12;100.00;99777.84;10092708;28;20070;-71
2024/03/30 08:31:28;;;;;;;5.93;5.22;;;;;;;12.38;100.00;99775.41;10109856;28;20130;-72
2024/03/30 08:36:23;;;;;;;7.57;5.65;;;;;;;12.65;100.00;99778.41;10076598;28;20043;-71
2024/03/30 08:41:19;;;;;;;5.97;5.38;;;;;;;12.89;100.00;99757.44;10094517;28;20054;-71
2024/03/30 08:46:14;;;;;;;6.20;5.60;;;;;;;13.25;100.00;99746.09;10115288;28;20472;-70
2024/03/30 08:51:10;;;;;;;6.00;5.43;;;;;;;13.45;100.00;99752.41;10091470;28;20061;-71
2024/03/30 08:56:05;;;;;;;6.13;5.63;;;;;;;13.50;100.00;99751.31;10078746;28;20051;-71
2024/03/30 09:01:01;;;;;;;6.85;6.18;;;;;;;13.53;100.00;99745.13;10091085;28;20043;-72
2024/03/30 09:05:56;;;;;;;6.35;5.85;;;;;;;13.66;100.00;99749.31;10075703;28;20051;-71
2024/03/30 09:10:52;;;;;;;7.35;5.95;;;;;;;13.91;100.00;99738.00;10089215;28;20055;-71
2024/03/30 09:15:47;;;;;;;7.75;5.88;;;;;;;14.14;100.00;99731.75;10084879;28;20053;-72
2024/03/30 09:20:45;;;;;;;6.20;5.65;;;;;;;14.41;100.00;99738.91;10095061;28;20137;-71
2024/03/30 09:25:41;;;;;;;6.65;6.15;;;;;;;14.54;100.00;99736.78;10091141;28;20040;-71
2024/03/30 09:30:37;;;;;;;6.68;6.18;;;;;;;14.44;100.00;99731.88;10089162;28;20048;-70
2024/03/30 09:35:32;;;;;;;7.18;6.45;;;;;;;14.34;100.00;99722.25;10072579;28;20047;-71
2024/03/30 09:40:28;;;;;;;7.60;6.90;;;;;;;14.44;100.00;99726.38;10090281;28;20043;-71
2024/03/30 09:45:26;;;;;;;7.18;6.57;;;;;;;14.65;100.00;99726.72;10092956;28;20047;-71
2024/03/30 09:50:23;;;;;;;7.72;7.03;;;;;;;14.94;100.00;99730.72;10111375;28;20654;-71
2024/03/30 09:55:19;;;;;;;7.70;6.95;;;;;;;15.37;100.00;99733.25;10075484;28;20090;-71
2024/03/30 10:00:15;;;;;;;7.85;7.10;;;;;;;15.43;100.00;99708.91;10074489;28;20047;-71
2024/03/30 10:05:12;;;;;;;9.20;7.28;;;;;;;15.21;100.00;99719.66;10091607;28;20051;-70
2024/03/30 10:10:11;;;;;;;7.60;7.00;;;;;;;15.55;100.00;99716.94;10078914;28;20047;-69
2024/03/30 10:15:10;;;;;;;7.70;7.10;;;;;;;15.59;100.00;99720.50;10071391;28;20055;-71
2024/03/30 10:20:06;;;;;;;7.80;7.10;;;;;;;16.34;100.00;99701.22;10093684;28;20101;-71
2024/03/30 10:25:03;;;;;;;8.23;6.85;;;;;;;16.37;100.00;99712.28;10073593;28;20059;-71
2024/03/30 10:29:58;;;;;;;7.45;6.75;;;;;;;16.99;100.00;99706.03;10080558;28;20104;-71
2024/03/30 10:34:54;;;;;;;6.90;6.30;;;;;;;17.22;100.00;99696.69;10070676;28;20130;-71
2024/03/30 10:39:49;;;;;;;7.45;6.65;;;;;;;17.51;100.00;99700.34;10092585;28;20047;-71
2024/03/30 10:44:45;;;;;;;8.18;7.10;;;;;;;17.94;100.00;99702.44;10087331;28;20069;-71
2024/03/30 10:49:40;;;;;;;8.88;6.75;;;;;;;18.14;100.00;99695.38;10070325;28;20126;-70
2024/03/30 10:54:36;;;;;;;7.65;6.95;;;;;;;18.14;100.00;99697.34;10074318;28;20070;-69
2024/03/30 10:59:40;;;;;;;8.02;7.22;;;;;;;18.19;100.00;99706.03;10091954;28;20043;-71
2024/03/30 11:04:38;;;;;;;7.68;6.97;;;;;;;17.97;100.00;99715.50;10070550;28;20046;-70
2024/03/30 11:09:37;;;;;;;8.23;7.20;;;;;;;17.97;100.00;99710.78;10070457;28;20075;-71
2024/03/30 11:14:32;;;;;;;8.57;7.63;;;;;;;17.83;100.00;99725.34;10099660;28;20043;-71
2024/03/30 11:19:43;;;;;;;8.32;6.80;;;;;;;17.62;100.00;99716.97;10094610;28;20507;-69
2024/03/30 11:24:52;;;;;;;11.23;7.15;;;;;;;18.01;100.00;99721.81;10071500;28;20554;-69
2024/03/30 11:30:03;;;;;;;11.95;7.15;;;;;;;18.51;100.00;99732.94;10076750;28;20086;-72
2024/03/30 11:35:04;;;;;;;10.60;7.07;;;;;;;18.64;100.00;99723.06;10065697;28;20087;-71
2024/03/30 11:40:12;;;;;;;10.65;6.90;;;;;;;18.33;100.00;99721.06;10093591;28;20542;-71
2024/03/30 11:45:08;;;;;;;12.35;7.25;;;;;;;18.15;100.00;99724.63;10097506;28;20062;-72
2024/03/30 11:50:04;;;;;;;11.85;7.50;;;;;;;17.89;100.00;99714.69;10093952;28;20047;-69
2024/03/30 11:55:04;;;;;;;13.80;7.85;;;;;;;17.73;100.00;99717.81;10088925;28;20063;-70
2024/03/30 12:00:00;;;;;;;14.10;8.05;;;;;;;17.65;100.00;99719.72;10094571;28;20086;-72
2024/03/30 12:05:02;;;;;;;13.65;8.07;;;;;;;17.77;100.00;99707.53;10053626;28;20090;-71
2024/03/30 12:10:01;;;;;;;10.83;7.50;;;;;;;17.94;100.00;99699.69;10094624;28;20084;-71
2024/03/30 12:14:57;;;;;;;18.30;8.57;;;;;;;17.96;100.00;99680.72;10093827;28;20467;-71
2024/03/30 12:19:53;;;;;;;21.92;7.97;;;;;;;17.90;100.00;99671.25;10094948;28;20044;-70
2024/03/30 12:24:53;;;;;;;11.30;7.40;;;;;;;17.92;100.00;99668.91;10074661;28;20082;-71
2024/03/30 12:29:49;;;;;;;18.00;8.20;;;;;;;17.96;100.00;99664.13;10060967;28;20050;-72
2024/03/30 12:34:44;;;;;;;14.80;8.32;;;;;;;18.07;100.00;99665.72;10076403;28;20130;-71
2024/03/30 12:39:40;;;;;;;16.27;8.45;;;;;;;18.08;100.00;99677.59;10082295;28;20042;-71
2024/03/30 12:44:35;;;;;;;17.73;9.00;;;;;;;17.98;100.00;99650.72;10091984;28;20094;-71
2024/03/30 12:49:35;;;;;;;18.95;8.20;;;;;;;18.08;100.00;99677.59;10073540;28;20046;-71
2024/03/30 12:54:32;;;;;;;23.10;8.85;;;;;;;18.06;100.00;99679.97;10091719;28;20046;-71
2024/03/30 12:59:29;;;;;;;26.80;9.45;;;;;;;18.23;100.00;99665.34;10075466;28;20075;-69
2024/03/30 13:04:28;;;;;;;17.23;8.18;;;;;;;18.21;100.00;99669.69;10051433;28;20074;-69
2024/03/30 13:09:24;;;;;;;18.48;8.65;;;;;;;18.07;100.00;99681.53;10072177;28;20070;-70
2024/03/30 13:14:20;;;;;;;19.02;8.82;;;;;;;18.08;100.00;99677.59;10039009;29;20096;-69
2024/03/30 13:19:16;;;;;;;23.90;8.45;;;;;;;18.05;100.00;99678.38;10068610;28;20481;-71
2024/03/30 13:24:11;;;;;;;21.33;8.40;;;;;;;18.03;100.00;99675.22;10091418;28;20458;-71
2024/03/30 13:29:07;;;;;;;14.85;8.52;;;;;;;18.38;100.00;99668.09;10073805;28;20051;-71
2024/03/30 13:34:02;;;;;;;27.70;8.90;;;;;;;19.47;100.00;99672.97;10089642;28;20047;-71
2024/03/30 13:38:58;;;;;;;20.98;8.40;;;;;;;19.25;100.00;99680.59;10091990;28;20035;-72
2024/03/30 13:43:54;;;;;;;22.38;8.48;;;;;;;18.97;100.00;99671.19;10093013;28;20050;-71
2024/03/30 13:48:50;;;;;;;21.00;9.85;;;;;;;18.63;100.00;99668.84;10090589;28;20047;-71
2024/03/30 13:53:46;;;;;;;14.48;9.07;;;;;;;18.36;100.00;99670.50;10088091;28;20051;-70
2024/03/30 13:58:41;;;;;;;17.15;8.20;;;;;;;18.22;100.00;99661.00;10094374;28;20097;-70
2024/03/30 14:03:37;;;;;;;18.02;8.43;;;;;;;18.05;100.00;99650.72;10071954;28;20130;-71
2024/03/30 14:08:33;;;;;;;16.52;9.07;;;;;;;17.93;100.00;99648.34;10074619;28;20058;-71
2024/03/30 14:13:29;;;;;;;21.80;9.18;;;;;;;17.94;100.00;99645.19;10075235;28;20438;-71
2024/03/30 14:18:25;;;;;;;20.92;8.98;;;;;;;17.98;100.00;99645.19;10060490;28;20042;-72
2024/03/30 14:23:20;;;;;;;24.48;9.10;;;;;;;18.05;100.00;99642.41;10064304;28;20047;-71
2024/03/30 14:28:16;;;;;;;17.48;9.30;;;;;;;18.38;100.00;99640.44;10091661;28;20157;-70
2024/03/30 14:33:11;;;;;;;18.42;9.30;;;;;;;18.48;100.00;99645.19;10072955;28;20038;-71
2024/03/30 14:38:07;;;;;;;18.38;9.30;;;;;;;18.46;100.00;99626.19;10070129;28;20047;-71
2024/03/30 14:43:03;;;;;;;17.45;9.93;;;;;;;18.50;100.00;99617.91;10085981;28;20062;-71
2024/03/30 14:47:58;;;;;;;16.75;8.85;;;;;;;18.47;100.00;99588.22;10042456;28;20098;-71
2024/03/30 14:52:54;;;;;;;15.05;10.68;;;;;;;18.61;100.00;99576.34;10082639;28;20077;-70
2024/03/30 14:57:50;;;;;;;16.70;9.32;;;;;;;18.55;100.00;99556.59;10086262;28;20118;-70
2024/03/30 15:02:45;;;;;;;25.33;9.05;;;;;;;18.26;100.00;99550.31;10086175;28;20053;-70
2024/03/30 15:07:41;;;;;;;19.70;10.27;;;;;;;18.17;100.00;99550.75;10086037;28;20042;-69
2024/03/30 15:12:38;;;;;;;17.27;8.32;;;;;;;17.97;100.00;99564.19;10070799;28;20132;-70
2024/03/30 15:17:33;;;;;;;17.02;8.30;;;;;;;17.77;100.00;99585.88;10082762;28;20071;-69
2024/03/30 15:22:29;;;;;;;17.30;8.48;;;;;;;17.50;100.00;99592.94;10075148;28;20552;-71
2024/03/30 15:27:24;;;;;;;18.08;9.18;;;;;;;17.35;100.00;99592.94;10090648;28;20047;-71
2024/03/30 15:32:25;;;;;;;20.05;9.35;;;;;;;17.26;100.00;99611.84;10073855;28;20043;-71
2024/03/30 15:37:20;;;;;;;17.25;9.15;;;;;;;17.13;100.00;99616.16;10072877;28;20035;-71
2024/03/30 15:42:16;;;;;;;15.93;8.65;;;;;;;16.98;100.00;99629.88;10073351;28;20051;-69
2024/03/30 15:47:14;;;;;;;17.45;10.05;;;;;;;16.82;100.00;99632.19;10069534;28;20035;-71
2024/03/30 15:52:10;;;;;;;22.05;10.23;;;;;;;16.68;100.00;99648.63;10086865;28;20090;-71
2024/03/30 15:57:05;;;;;;;27.23;11.63;;;;;;;16.65;100.00;99664.00;10081549;28;20058;-71
2024/03/30 16:02:01;;;;;;;24.88;10.18;;;;;;;16.56;100.00;99680.09;10085857;28;20074;-71
2024/03/30 16:06:57;;;;;;;29.00;13.15;;;;;;;16.52;100.00;99690.31;10086743;28;20151;-71
2024/03/30 16:11:52;;;;;;;29.90;16.23;;;;;;;16.46;100.00;99697.38;10084390;28;20603;-71
2024/03/30 16:16:48;;;;;;;33.22;15.40;;;;;;;16.34;100.00;99703.97;10086129;28;20586;-71
2024/03/30 16:21:44;;;;;;;35.00;15.25;;;;;;;16.20;100.00;99708.19;10069363;28;20122;-71
2024/03/30 16:26:40;;;;;;;32.70;14.82;;;;;;;16.14;100.00;99714.44;10073248;28;20075;-72
2024/03/30 16:31:36;;;;;;;33.15;15.73;;;;;;;16.01;100.00;99727.69;10076510;28;20044;-71
2024/03/30 16:36:31;;;;;;;34.50;15.68;;;;;;;16.01;100.00;99724.94;10077904;28;20043;-71
2024/03/30 16:41:27;;;;;;;29.38;16.08;;;;;;;15.96;100.00;99731.56;10075666;28;20094;-71
2024/03/30 16:46:22;;;;;;;26.65;14.32;;;;;;;15.85;100.00;99725.19;10078318;28;20495;-71
2024/03/30 16:51:18;;;;;;;22.77;13.38;;;;;;;15.78;100.00;99734.16;10083041;28;20054;-71
2024/03/30 16:56:14;;;;;;;26.08;13.73;;;;;;;15.66;100.00;99744.59;10074567;28;20062;-71
2024/03/30 17:01:10;;;;;;;24.95;14.60;;;;;;;15.54;100.00;99751.16;10093678;28;20059;-71
2024/03/30 17:06:05;;;;;;;30.38;14.95;;;;;;;15.41;100.00;99749.81;10075561;28;20062;-72
2024/03/30 17:11:03;;;;;;;25.30;15.43;;;;;;;15.26;100.00;99752.38;10091615;28;20057;-71
2024/03/30 17:16:03;;;;;;;29.17;15.82;;;;;;;15.14;100.00;99752.59;10097287;28;20057;-71
2024/03/30 17:21:00;;;;;;;23.88;15.15;;;;;;;15.02;100.00;99747.34;10092592;28;20546;-71
2024/03/30 17:25:56;;;;;;;24.95;15.93;;;;;;;14.91;100.00;99753.47;10090160;28;20088;-71
2024/03/30 17:30:55;;;;;;;26.48;16.50;;;;;;;14.78;100.00;99765.84;10084218;28;20368;-71
2024/03/30 17:36:08;;;;;;;34.35;17.88;;;;;;;14.69;100.00;99766.09;10090954;28;20078;-72
2024/03/30 17:41:05;;;;;;;28.83;16.05;;;;;;;14.61;100.00;99758.09;10080793;28;20133;-71
2024/03/30 17:46:02;;;;;;;27.45;17.63;;;;;;;14.50;100.00;99753.19;10074041;28;20475;-71
2024/03/30 17:51:02;;;;;;;32.55;17.42;;;;;;;14.38;100.00;99756.13;10074423;28;20050;-71
2024/03/30 17:55:59;;;;;;;34.35;19.35;;;;;;;14.33;100.00;99770.19;10088927;28;20074;-71
2024/03/30 18:01:06;;;;;;;32.80;18.88;;;;;;;14.27;100.00;99777.13;10073012;28;20594;-71
2024/03/30 18:06:02;;;;;;;36.35;21.02;;;;;;;14.18;100.00;99790.31;10070535;28;20047;-71
2024/03/30 18:10:59;;;;;;;30.55;19.25;;;;;;;14.10;100.00;99795.69;10075131;28;20554;-71
2024/03/30 18:16:08;;;;;;;34.88;19.92;;;;;;;14.01;100.00;99797.88;10081309;28;20075;-71
2024/03/30 18:21:04;;;;;;;38.55;22.15;;;;;;;13.93;100.00;99801.66;10076281;28;20431;-71
2024/03/30 18:26:00;;;;;;;42.72;21.52;;;;;;;13.87;100.00;99814.06;10076634;28;20130;-71
2024/03/30 18:30:56;;;;;;;39.55;21.38;;;;;;;13.84;100.00;99818.34;10091492;28;20075;-71
2024/03/30 18:35:51;;;;;;;44.08;19.00;;;;;;;13.87;100.00;99817.63;10072687;28;20051;-71
2024/03/30 18:40:47;;;;;;;37.85;17.85;;;;;;;14.07;100.00;99807.41;10090660;28;20055;-71
2024/03/30 18:45:45;;;;;;;38.63;16.02;;;;;;;14.30;100.00;99798.41;10070615;28;20426;-70
2024/03/30 18:50:41;;;;;;;35.90;14.82;;;;;;;14.32;100.00;99796.09;10087869;28;20070;-71
2024/03/30 18:55:36;;;;;;;36.10;14.80;;;;;;;14.27;100.00;99788.94;10077253;28;20085;-71
2024/03/30 19:00:32;;;;;;;36.33;14.43;;;;;;;14.26;100.00;99781.84;10090486;28;20045;-71
2024/03/30 19:05:27;;;;;;;38.88;13.55;;;;;;;14.51;100.00;99781.50;10087848;28;20235;-70
2024/03/30 19:10:23;;;;;;;49.78;13.50;;;;;;;14.65;100.00;99781.75;10086059;28;20039;-71
2024/03/30 19:15:19;;;;;;;32.58;12.18;;;;;;;14.77;100.00;99785.47;10069461;28;20050;-71
2024/03/30 19:20:15;;;;;;;38.45;15.07;;;;;;;14.77;100.00;99782.72;10085618;28;20047;-71
2024/03/30 19:25:10;;;;;;;41.50;15.55;;;;;;;14.61;100.00;99785.59;10085436;28;20137;-71
2024/03/30 19:30:06;;;;;;;35.00;14.18;;;;;;;14.72;100.00;99786.59;10082883;28;20039;-71
2024/03/30 19:35:03;;;;;;;45.35;14.15;;;;;;;14.64;100.00;99790.38;10072694;28;20047;-71
2024/03/30 19:39:58;;;;;;;37.90;13.63;;;;;;;14.39;100.00;99795.41;10093228;28;20133;-70
2024/03/30 19:44:54;;;;;;;40.63;14.80;;;;;;;14.43;100.00;99786.06;10088364;28;20105;-71
2024/03/30 19:49:52;;;;;;;45.92;16.52;;;;;;;14.37;100.00;99793.03;10087539;28;20130;-71
2024/03/30 19:54:48;;;;;;;33.15;14.25;;;;;;;14.46;100.00;99790.84;10074700;28;20054;-71
2024/03/30 19:59:44;;;;;;;52.45;16.30;;;;;;;14.47;100.00;99797.13;10070616;28;20040;-71
2024/03/30 20:04:39;;;;;;;40.97;15.85;;;;;;;14.46;100.00;99796.34;10075904;28;20534;-70
2024/03/30 20:09:35;;;;;;;42.38;16.15;;;;;;;14.49;100.00;99800.31;10090912;28;20404;-70
2024/03/30 20:14:31;;;;;;;39.38;16.67;;;;;;;14.36;100.00;99796.16;10099183;28;20042;-70
2024/03/30 20:19:27;;;;;;;53.63;18.77;;;;;;;14.33;100.00;99797.69;10097758;28;20159;-71
2024/03/30 20:24:23;;;;;;;58.08;18.63;;;;;;;14.32;100.00;99801.59;10097085;28;20632;-70
2024/03/30 20:29:19;;;;;;;38.53;17.90;;;;;;;14.18;100.00;99801.31;10075104;28;20046;-70
2024/03/30 20:34:14;;;;;;;72.88;25.05;;;;;;;14.18;100.00;99801.31;10080917;28;20058;-71
2024/03/30 20:39:10;;;;;;;66.75;25.50;;;;;;;14.24;100.00;99802.63;10079156;28;20050;-71
2024/03/30 20:44:05;;;;;;;69.43;24.27;;;;;;;14.35;100.00;99806.34;10091263;28;20154;-71
2024/03/30 20:49:01;;;;;;;70.10;25.58;;;;;;;14.20;100.00;99810.81;10075276;28;20054;-70
2024/03/30 20:53:57;;;;;;;65.70;23.23;;;;;;;14.19;100.00;99820.19;10074359;28;20101;-70
2024/03/30 20:58:53;;;;;;;68.25;22.90;;;;;;;14.14;100.00;99805.97;10096853;28;20046;-70
2024/03/30 21:03:48;;;;;;;59.65;24.08;;;;;;;14.09;100.00;99816.09;10055512;28;20071;-70
2024/03/30 21:08:44;;;;;;;65.50;27.00;;;;;;;14.04;100.00;99813.66;10074080;28;20130;-70
2024/03/30 21:13:40;;;;;;;83.00;29.95;;;;;;;13.96;100.00;99822.09;10095245;28;20043;-71
2024/03/30 21:18:36;;;;;;;70.43;26.90;;;;;;;13.89;100.00;99828.25;10088986;28;20039;-70
2024/03/30 21:23:34;;;;;;;75.13;29.73;;;;;;;13.75;100.00;99828.75;10091219;28;20126;-71
2024/03/30 21:28:30;;;;;;;66.75;32.28;;;;;;;13.67;100.00;99833.31;10077999;28;20047;-71
2024/03/30 21:33:25;;;;;;;75.85;31.98;;;;;;;13.59;100.00;99842.53;10083111;28;20575;-71
2024/03/30 21:38:22;;;;;;;78.50;35.65;;;;;;;13.54;100.00;99845.56;10089569;28;20035;-71
2024/03/30 21:43:17;;;;;;;70.28;34.70;;;;;;;13.39;100.00;99843.66;10098049;28;20082;-70
2024/03/30 21:48:13;;;;;;;72.95;34.20;;;;;;;13.21;100.00;99844.03;10093831;28;20094;-71
2024/03/30 21:53:08;;;;;;;78.53;36.75;;;;;;;13.09;100.00;99846.88;10076912;28;20043;-71
2024/03/30 21:58:04;;;;;;;72.35;32.30;;;;;;;12.95;100.00;99868.47;10079659;28;20049;-71
2024/03/30 22:02:59;;;;;;;83.05;35.53;;;;;;;12.83;100.00;99872.91;10071870;28;20057;-71
2024/03/30 22:07:55;;;;;;;78.68;34.72;;;;;;;12.76;100.00;99871.91;10080989;28;20130;-71
2024/03/30 22:12:51;;;;;;;70.82;33.80;;;;;;;12.74;100.00;99874.22;10084146;28;20050;-71
2024/03/30 22:17:46;;;;;;;87.63;35.22;;;;;;;12.59;100.00;99867.56;10074644;28;20054;-71
2024/03/30 22:22:42;;;;;;;75.40;32.80;;;;;;;12.56;100.00;99873.78;10071209;28;20101;-70
2024/03/30 22:27:37;;;;;;;54.55;30.20;;;;;;;12.61;100.00;99881.75;10071021;28;20035;-71
2024/03/30 22:32:37;;;;;;;67.80;29.88;;;;;;;12.47;100.00;99897.81;10086557;28;20049;-71
2024/03/30 22:37:34;;;;;;;54.35;30.10;;;;;;;12.47;100.00;99900.56;10070994;28;20041;-71
2024/03/30 22:42:29;;;;;;;66.45;29.95;;;;;;;12.40;100.00;99915.66;10073600;28;20043;-71